sensor_id;sensor_type;location;lat;lon;timestamp;P1;durP1;ratioP1;P2;durP2;ratioP2
36839;SDS011;24406;51.640;9.566;2023-05-10T00:03:12;3.10;;;2.65;;
36839;SDS011;24406;51.640;9.566;2023-05-10T00:08:13;3.53;;;2.97;;
36839;SDS011;24406;51.640;9.566;2023-05-10T00:13:16;3.30;;;3.00;;
36839;SDS011;24406;51.640;9.566;2023-05-10T00:18:18;5.43;;;3.47;;
36839;SDS011;24406;51.640;9.566;2023-05-10T00:23:19;3.20;;;2.90;;
36839;SDS011;24406;51.640;9.566;2023-05-10T00:28:22;3.45;;;3.15;;
36839;SDS011;24406;51.640;9.566;2023-05-10T00:33:23;4.78;;;3.40;;
36839;SDS011;24406;51.640;9.566;2023-05-10T00:38:25;5.78;;;3.30;;
36839;SDS011;24406;51.640;9.566;2023-05-10T00:43:28;4.07;;;2.90;;
36839;SDS011;24406;51.640;9.566;2023-05-10T00:48:30;3.25;;;2.95;;
36839;SDS011;24406;51.640;9.566;2023-05-10T00:53:31;3.90;;;3.60;;
36839;SDS011;24406;51.640;9.566;2023-05-10T00:58:34;3.15;;;2.95;;
36839;SDS011;24406;51.640;9.566;2023-05-10T01:03:36;5.80;;;3.00;;
36839;SDS011;24406;51.640;9.566;2023-05-10T01:08:38;3.70;;;3.05;;
36839;SDS011;24406;51.640;9.566;2023-05-10T01:13:42;4.47;;;3.47;;
36839;SDS011;24406;51.640;9.566;2023-05-10T01:18:44;5.40;;;3.17;;
36839;SDS011;24406;51.640;9.566;2023-05-10T01:24:03;4.15;;;3.70;;
36839;SDS011;24406;51.640;9.566;2023-05-10T01:29:21;4.23;;;3.60;;
36839;SDS011;24406;51.640;9.566;2023-05-10T01:34:35;4.95;;;3.78;;
36839;SDS011;24406;51.640;9.566;2023-05-10T01:39:44;6.47;;;3.90;;
36839;SDS011;24406;51.640;9.566;2023-05-10T01:44:49;3.50;;;3.22;;
36839;SDS011;24406;51.640;9.566;2023-05-10T01:49:59;4.30;;;3.92;;
36839;SDS011;24406;51.640;9.566;2023-05-10T01:55:04;6.43;;;4.38;;
36839;SDS011;24406;51.640;9.566;2023-05-10T02:00:09;6.93;;;3.60;;
36839;SDS011;24406;51.640;9.566;2023-05-10T02:10:21;7.28;;;4.47;;
36839;SDS011;24406;51.640;9.566;2023-05-10T02:15:23;8.30;;;4.90;;
36839;SDS011;24406;51.640;9.566;2023-05-10T02:20:26;6.68;;;4.43;;
36839;SDS011;24406;51.640;9.566;2023-05-10T02:25:28;6.28;;;4.38;;
36839;SDS011;24406;51.640;9.566;2023-05-10T02:30:31;5.57;;;4.95;;
36839;SDS011;24406;51.640;9.566;2023-05-10T02:35:34;5.15;;;4.65;;
36839;SDS011;24406;51.640;9.566;2023-05-10T02:40:36;8.75;;;4.72;;
36839;SDS011;24406;51.640;9.566;2023-05-10T02:45:38;7.20;;;5.03;;
36839;SDS011;24406;51.640;9.566;2023-05-10T02:50:41;7.75;;;5.47;;
36839;SDS011;24406;51.640;9.566;2023-05-10T02:55:45;5.65;;;5.13;;
36839;SDS011;24406;51.640;9.566;2023-05-10T03:00:50;5.38;;;4.88;;
36839;SDS011;24406;51.640;9.566;2023-05-10T03:05:53;9.32;;;5.63;;
36839;SDS011;24406;51.640;9.566;2023-05-10T03:11:00;6.20;;;5.70;;
36839;SDS011;24406;51.640;9.566;2023-05-10T03:16:10;5.85;;;5.03;;
36839;SDS011;24406;51.640;9.566;2023-05-10T03:21:15;6.80;;;5.40;;
36839;SDS011;24406;51.640;9.566;2023-05-10T03:26:26;7.38;;;5.95;;
36839;SDS011;24406;51.640;9.566;2023-05-10T03:31:36;6.45;;;5.72;;
36839;SDS011;24406;51.640;9.566;2023-05-10T03:36:40;8.32;;;6.22;;
36839;SDS011;24406;51.640;9.566;2023-05-10T03:41:42;8.77;;;6.60;;
36839;SDS011;24406;51.640;9.566;2023-05-10T03:46:44;11.88;;;7.05;;
36839;SDS011;24406;51.640;9.566;2023-05-10T03:51:47;8.00;;;7.10;;
36839;SDS011;24406;51.640;9.566;2023-05-10T03:56:49;7.35;;;6.63;;
36839;SDS011;24406;51.640;9.566;2023-05-10T04:01:53;8.68;;;7.85;;
36839;SDS011;24406;51.640;9.566;2023-05-10T04:06:55;10.43;;;8.40;;
36839;SDS011;24406;51.640;9.566;2023-05-10T04:11:58;8.32;;;7.57;;
36839;SDS011;24406;51.640;9.566;2023-05-10T04:16:59;8.25;;;7.45;;
36839;SDS011;24406;51.640;9.566;2023-05-10T04:22:03;8.75;;;7.95;;
36839;SDS011;24406;51.640;9.566;2023-05-10T04:27:04;9.32;;;8.43;;
36839;SDS011;24406;51.640;9.566;2023-05-10T04:32:06;10.50;;;9.10;;
36839;SDS011;24406;51.640;9.566;2023-05-10T04:37:09;10.13;;;9.23;;
36839;SDS011;24406;51.640;9.566;2023-05-10T04:42:10;13.85;;;8.75;;
36839;SDS011;24406;51.640;9.566;2023-05-10T04:47:12;10.40;;;9.38;;
36839;SDS011;24406;51.640;9.566;2023-05-10T04:52:15;9.93;;;9.02;;
36839;SDS011;24406;51.640;9.566;2023-05-10T04:57:17;10.15;;;8.60;;
36839;SDS011;24406;51.640;9.566;2023-05-10T05:02:19;9.60;;;8.57;;
36839;SDS011;24406;51.640;9.566;2023-05-10T05:07:22;9.40;;;8.50;;
36839;SDS011;24406;51.640;9.566;2023-05-10T05:12:23;9.55;;;8.27;;
36839;SDS011;24406;51.640;9.566;2023-05-10T05:17:25;9.93;;;8.27;;
36839;SDS011;24406;51.640;9.566;2023-05-10T05:22:28;9.60;;;8.10;;
36839;SDS011;24406;51.640;9.566;2023-05-10T05:27:30;8.73;;;7.82;;
36839;SDS011;24406;51.640;9.566;2023-05-10T05:32:32;9.68;;;7.82;;
36839;SDS011;24406;51.640;9.566;2023-05-10T05:37:35;8.63;;;7.85;;
36839;SDS011;24406;51.640;9.566;2023-05-10T05:42:37;9.65;;;8.65;;
36839;SDS011;24406;51.640;9.566;2023-05-10T05:47:38;9.45;;;8.48;;
36839;SDS011;24406;51.640;9.566;2023-05-10T05:52:41;8.23;;;7.43;;
36839;SDS011;24406;51.640;9.566;2023-05-10T05:57:42;12.15;;;8.15;;
36839;SDS011;24406;51.640;9.566;2023-05-10T06:02:44;7.38;;;6.68;;
36839;SDS011;24406;51.640;9.566;2023-05-10T06:07:47;6.80;;;6.10;;
36839;SDS011;24406;51.640;9.566;2023-05-10T06:12:49;6.32;;;5.78;;
36839;SDS011;24406;51.640;9.566;2023-05-10T06:17:50;6.00;;;5.50;;
36839;SDS011;24406;51.640;9.566;2023-05-10T06:22:53;6.25;;;5.75;;
36839;SDS011;24406;51.640;9.566;2023-05-10T06:27:55;6.50;;;5.70;;
36839;SDS011;24406;51.640;9.566;2023-05-10T06:32:58;4.50;;;4.20;;
36839;SDS011;24406;51.640;9.566;2023-05-10T06:38:00;3.05;;;2.85;;
36839;SDS011;24406;51.640;9.566;2023-05-10T06:43:02;3.47;;;2.78;;
36839;SDS011;24406;51.640;9.566;2023-05-10T06:48:03;2.83;;;2.60;;
36839;SDS011;24406;51.640;9.566;2023-05-10T06:53:07;2.30;;;2.05;;
36839;SDS011;24406;51.640;9.566;2023-05-10T06:58:08;3.08;;;2.03;;
36839;SDS011;24406;51.640;9.566;2023-05-10T07:03:09;2.00;;;1.90;;
36839;SDS011;24406;51.640;9.566;2023-05-10T07:08:13;1.55;;;1.42;;
36839;SDS011;24406;51.640;9.566;2023-05-10T07:13:14;1.80;;;1.45;;
36839;SDS011;24406;51.640;9.566;2023-05-10T07:18:16;2.25;;;1.27;;
36839;SDS011;24406;51.640;9.566;2023-05-10T07:23:18;1.02;;;1.00;;
36839;SDS011;24406;51.640;9.566;2023-05-10T07:28:21;1.33;;;1.17;;
36839;SDS011;24406;51.640;9.566;2023-05-10T07:33:24;1.13;;;1.10;;
36839;SDS011;24406;51.640;9.566;2023-05-10T07:38:27;1.45;;;1.20;;
36839;SDS011;24406;51.640;9.566;2023-05-10T07:43:28;1.63;;;1.52;;
36839;SDS011;24406;51.640;9.566;2023-05-10T07:48:29;1.95;;;1.58;;
36839;SDS011;24406;51.640;9.566;2023-05-10T07:53:32;1.60;;;1.50;;
36839;SDS011;24406;51.640;9.566;2023-05-10T07:58:34;1.65;;;1.55;;
36839;SDS011;24406;51.640;9.566;2023-05-10T08:03:35;1.85;;;1.65;;
36839;SDS011;24406;51.640;9.566;2023-05-10T08:08:38;1.50;;;1.40;;
36839;SDS011;24406;51.640;9.566;2023-05-10T08:13:39;1.48;;;1.38;;
36839;SDS011;24406;51.640;9.566;2023-05-10T08:18:41;1.60;;;1.50;;
36839;SDS011;24406;51.640;9.566;2023-05-10T08:23:44;1.92;;;1.80;;
36839;SDS011;24406;51.640;9.566;2023-05-10T08:28:45;2.50;;;1.90;;
36839;SDS011;24406;51.640;9.566;2023-05-10T08:33:47;1.98;;;1.70;;
36839;SDS011;24406;51.640;9.566;2023-05-10T08:38:50;1.48;;;1.30;;
36839;SDS011;24406;51.640;9.566;2023-05-10T08:43:52;3.83;;;1.50;;
36839;SDS011;24406;51.640;9.566;2023-05-10T08:48:54;1.63;;;1.50;;
36839;SDS011;24406;51.640;9.566;2023-05-10T08:53:58;1.75;;;1.40;;
36839;SDS011;24406;51.640;9.566;2023-05-10T08:59:00;1.40;;;1.30;;
36839;SDS011;24406;51.640;9.566;2023-05-10T09:04:02;1.80;;;1.30;;
36839;SDS011;24406;51.640;9.566;2023-05-10T09:09:05;1.95;;;1.20;;
36839;SDS011;24406;51.640;9.566;2023-05-10T09:14:07;3.90;;;1.30;;
36839;SDS011;24406;51.640;9.566;2023-05-10T09:19:09;3.17;;;1.50;;
36839;SDS011;24406;51.640;9.566;2023-05-10T09:24:12;1.70;;;1.60;;
36839;SDS011;24406;51.640;9.566;2023-05-10T09:29:14;2.58;;;1.63;;
36839;SDS011;24406;51.640;9.566;2023-05-10T09:34:16;2.35;;;1.42;;
36839;SDS011;24406;51.640;9.566;2023-05-10T09:39:20;2.47;;;1.67;;
36839;SDS011;24406;51.640;9.566;2023-05-10T09:44:21;2.13;;;1.50;;
36839;SDS011;24406;51.640;9.566;2023-05-10T09:49:23;2.42;;;1.42;;
36839;SDS011;24406;51.640;9.566;2023-05-10T09:54:26;2.05;;;1.92;;
36839;SDS011;24406;51.640;9.566;2023-05-10T09:59:28;2.85;;;1.80;;
36839;SDS011;24406;51.640;9.566;2023-05-10T10:04:30;3.30;;;1.70;;
36839;SDS011;24406;51.640;9.566;2023-05-10T10:09:33;3.05;;;1.50;;
36839;SDS011;24406;51.640;9.566;2023-05-10T10:14:35;2.78;;;1.80;;
36839;SDS011;24406;51.640;9.566;2023-05-10T10:19:37;5.32;;;2.28;;
36839;SDS011;24406;51.640;9.566;2023-05-10T10:24:39;4.85;;;2.30;;
36839;SDS011;24406;51.640;9.566;2023-05-10T10:29:44;2.72;;;2.17;;
36839;SDS011;24406;51.640;9.566;2023-05-10T10:34:51;4.78;;;2.55;;
36839;SDS011;24406;51.640;9.566;2023-05-10T10:39:54;1.92;;;1.75;;
36839;SDS011;24406;51.640;9.566;2023-05-10T10:45:08;3.35;;;1.40;;
36839;SDS011;24406;51.640;9.566;2023-05-10T10:50:12;2.40;;;2.20;;
36839;SDS011;24406;51.640;9.566;2023-05-10T10:55:18;6.03;;;2.75;;
36839;SDS011;24406;51.640;9.566;2023-05-10T11:00:23;2.70;;;2.50;;
36839;SDS011;24406;51.640;9.566;2023-05-10T11:10:51;4.15;;;2.28;;
36839;SDS011;24406;51.640;9.566;2023-05-10T11:15:53;6.22;;;3.60;;
36839;SDS011;24406;51.640;9.566;2023-05-10T11:20:57;3.58;;;2.95;;
36839;SDS011;24406;51.640;9.566;2023-05-10T11:26:02;3.65;;;3.33;;
36839;SDS011;24406;51.640;9.566;2023-05-10T11:31:04;3.83;;;3.53;;
36839;SDS011;24406;51.640;9.566;2023-05-10T11:36:06;4.80;;;3.88;;
36839;SDS011;24406;51.640;9.566;2023-05-10T11:41:13;6.53;;;4.15;;
36839;SDS011;24406;51.640;9.566;2023-05-10T11:46:16;6.40;;;4.38;;
36839;SDS011;24406;51.640;9.566;2023-05-10T11:51:20;6.30;;;5.55;;
36839;SDS011;24406;51.640;9.566;2023-05-10T11:56:23;7.95;;;5.43;;
36839;SDS011;24406;51.640;9.566;2023-05-10T12:01:26;5.78;;;4.85;;
36839;SDS011;24406;51.640;9.566;2023-05-10T12:06:29;6.10;;;4.88;;
36839;SDS011;24406;51.640;9.566;2023-05-10T12:11:35;7.13;;;6.43;;
36839;SDS011;24406;51.640;9.566;2023-05-10T12:16:37;7.75;;;5.50;;
36839;SDS011;24406;51.640;9.566;2023-05-10T12:21:39;11.75;;;6.97;;
36839;SDS011;24406;51.640;9.566;2023-05-10T12:26:42;10.50;;;7.22;;
36839;SDS011;24406;51.640;9.566;2023-05-10T12:31:51;7.57;;;6.65;;
36839;SDS011;24406;51.640;9.566;2023-05-10T12:36:53;7.63;;;6.82;;
36839;SDS011;24406;51.640;9.566;2023-05-10T12:41:56;7.22;;;6.47;;
36839;SDS011;24406;51.640;9.566;2023-05-10T12:46:57;7.57;;;6.88;;
36839;SDS011;24406;51.640;9.566;2023-05-10T12:51:59;9.52;;;7.30;;
36839;SDS011;24406;51.640;9.566;2023-05-10T12:57:02;8.50;;;7.07;;
36839;SDS011;24406;51.640;9.566;2023-05-10T13:02:04;9.30;;;7.70;;
36839;SDS011;24406;51.640;9.566;2023-05-10T13:07:05;9.27;;;6.10;;
36839;SDS011;24406;51.640;9.566;2023-05-10T13:12:09;7.05;;;6.35;;
36839;SDS011;24406;51.640;9.566;2023-05-10T13:17:10;7.15;;;6.43;;
36839;SDS011;24406;51.640;9.566;2023-05-10T13:22:12;9.65;;;6.72;;
36839;SDS011;24406;51.640;9.566;2023-05-10T13:27:15;7.35;;;6.65;;
36839;SDS011;24406;51.640;9.566;2023-05-10T13:32:16;7.70;;;6.00;;
36839;SDS011;24406;51.640;9.566;2023-05-10T13:37:18;6.68;;;5.85;;
36839;SDS011;24406;51.640;9.566;2023-05-10T13:42:21;7.93;;;7.13;;
36839;SDS011;24406;51.640;9.566;2023-05-10T13:47:23;8.35;;;7.40;;
36839;SDS011;24406;51.640;9.566;2023-05-10T13:52:24;7.68;;;6.40;;
36839;SDS011;24406;51.640;9.566;2023-05-10T13:57:28;7.90;;;6.50;;
36839;SDS011;24406;51.640;9.566;2023-05-10T14:02:30;12.43;;;7.40;;
36839;SDS011;24406;51.640;9.566;2023-05-10T14:07:31;8.60;;;7.68;;
36839;SDS011;24406;51.640;9.566;2023-05-10T14:12:34;9.02;;;8.10;;
36839;SDS011;24406;51.640;9.566;2023-05-10T14:17:36;9.07;;;8.18;;
36839;SDS011;24406;51.640;9.566;2023-05-10T14:22:37;10.30;;;9.20;;
36839;SDS011;24406;51.640;9.566;2023-05-10T14:27:40;9.90;;;8.65;;
36839;SDS011;24406;51.640;9.566;2023-05-10T14:32:41;11.23;;;9.57;;
36839;SDS011;24406;51.640;9.566;2023-05-10T14:37:43;11.63;;;9.80;;
36839;SDS011;24406;51.640;9.566;2023-05-10T14:42:46;13.32;;;10.13;;
36839;SDS011;24406;51.640;9.566;2023-05-10T14:47:47;14.55;;;11.48;;
36839;SDS011;24406;51.640;9.566;2023-05-10T14:52:49;15.02;;;10.20;;
36839;SDS011;24406;51.640;9.566;2023-05-10T14:57:51;15.40;;;10.77;;
36839;SDS011;24406;51.640;9.566;2023-05-10T15:02:53;12.77;;;9.82;;
36839;SDS011;24406;51.640;9.566;2023-05-10T15:07:54;12.93;;;9.40;;
36839;SDS011;24406;51.640;9.566;2023-05-10T15:12:57;10.23;;;9.23;;
36839;SDS011;24406;51.640;9.566;2023-05-10T15:17:59;11.55;;;9.55;;
36839;SDS011;24406;51.640;9.566;2023-05-10T15:23:01;11.98;;;10.13;;
36839;SDS011;24406;51.640;9.566;2023-05-10T15:28:04;11.02;;;9.52;;
36839;SDS011;24406;51.640;9.566;2023-05-10T15:33:06;13.07;;;8.90;;
36839;SDS011;24406;51.640;9.566;2023-05-10T15:38:08;13.73;;;9.43;;
36839;SDS011;24406;51.640;9.566;2023-05-10T15:43:11;12.13;;;10.27;;
36839;SDS011;24406;51.640;9.566;2023-05-10T15:48:13;12.68;;;10.13;;
36839;SDS011;24406;51.640;9.566;2023-05-10T15:53:14;13.88;;;10.88;;
36839;SDS011;24406;51.640;9.566;2023-05-10T15:58:17;13.65;;;11.30;;
36839;SDS011;24406;51.640;9.566;2023-05-10T16:03:19;18.90;;;12.40;;
36839;SDS011;24406;51.640;9.566;2023-05-10T16:08:21;12.95;;;10.82;;
36839;SDS011;24406;51.640;9.566;2023-05-10T16:13:24;13.30;;;10.70;;
36839;SDS011;24406;51.640;9.566;2023-05-10T16:18:25;22.05;;;16.88;;
36839;SDS011;24406;51.640;9.566;2023-05-10T16:23:27;13.00;;;10.45;;
36839;SDS011;24406;51.640;9.566;2023-05-10T16:28:30;11.52;;;8.93;;
36839;SDS011;24406;51.640;9.566;2023-05-10T16:33:31;12.32;;;9.30;;
36839;SDS011;24406;51.640;9.566;2023-05-10T16:38:33;11.73;;;9.88;;
36839;SDS011;24406;51.640;9.566;2023-05-10T16:43:35;12.80;;;9.35;;
36839;SDS011;24406;51.640;9.566;2023-05-10T16:48:37;8.05;;;7.25;;
36839;SDS011;24406;51.640;9.566;2023-05-10T16:53:39;11.35;;;8.27;;
36839;SDS011;24406;51.640;9.566;2023-05-10T16:58:41;9.75;;;7.57;;
36839;SDS011;24406;51.640;9.566;2023-05-10T17:03:43;10.48;;;8.60;;
36839;SDS011;24406;51.640;9.566;2023-05-10T17:08:45;15.50;;;13.68;;
36839;SDS011;24406;51.640;9.566;2023-05-10T17:13:48;9.10;;;8.20;;
36839;SDS011;24406;51.640;9.566;2023-05-10T17:18:51;16.63;;;13.63;;
36839;SDS011;24406;51.640;9.566;2023-05-10T17:23:52;9.63;;;7.50;;
36839;SDS011;24406;51.640;9.566;2023-05-10T17:28:55;9.80;;;7.70;;
36839;SDS011;24406;51.640;9.566;2023-05-10T17:33:57;7.80;;;6.68;;
36839;SDS011;24406;51.640;9.566;2023-05-10T17:38:58;8.20;;;7.20;;
36839;SDS011;24406;51.640;9.566;2023-05-10T17:44:02;11.35;;;7.47;;
36839;SDS011;24406;51.640;9.566;2023-05-10T17:49:03;8.60;;;7.63;;
36839;SDS011;24406;51.640;9.566;2023-05-10T17:54:05;10.18;;;7.15;;
36839;SDS011;24406;51.640;9.566;2023-05-10T17:59:08;11.07;;;7.05;;
36839;SDS011;24406;51.640;9.566;2023-05-10T18:04:09;9.82;;;7.25;;
36839;SDS011;24406;51.640;9.566;2023-05-10T18:09:11;9.98;;;7.68;;
36839;SDS011;24406;51.640;9.566;2023-05-10T18:14:14;9.65;;;7.72;;
36839;SDS011;24406;51.640;9.566;2023-05-10T18:19:16;8.48;;;7.53;;
36839;SDS011;24406;51.640;9.566;2023-05-10T18:24:17;9.27;;;6.78;;
36839;SDS011;24406;51.640;9.566;2023-05-10T18:29:21;8.02;;;6.32;;
36839;SDS011;24406;51.640;9.566;2023-05-10T18:34:23;8.05;;;7.35;;
36839;SDS011;24406;51.640;9.566;2023-05-10T18:39:25;8.55;;;7.75;;
36839;SDS011;24406;51.640;9.566;2023-05-10T18:44:28;8.30;;;7.40;;
36839;SDS011;24406;51.640;9.566;2023-05-10T18:49:29;9.52;;;7.85;;
36839;SDS011;24406;51.640;9.566;2023-05-10T18:54:31;9.48;;;7.97;;
36839;SDS011;24406;51.640;9.566;2023-05-10T18:59:34;10.07;;;8.18;;
36839;SDS011;24406;51.640;9.566;2023-05-10T19:04:35;9.02;;;7.53;;
36839;SDS011;24406;51.640;9.566;2023-05-10T19:09:38;10.63;;;8.20;;
36839;SDS011;24406;51.640;9.566;2023-05-10T19:14:41;9.15;;;7.68;;
36839;SDS011;24406;51.640;9.566;2023-05-10T19:19:43;11.30;;;8.35;;
36839;SDS011;24406;51.640;9.566;2023-05-10T19:24:45;12.45;;;9.07;;
36839;SDS011;24406;51.640;9.566;2023-05-10T19:29:48;10.45;;;8.90;;
36839;SDS011;24406;51.640;9.566;2023-05-10T19:34:51;13.40;;;8.85;;
36839;SDS011;24406;51.640;9.566;2023-05-10T19:39:53;13.00;;;8.93;;
36839;SDS011;24406;51.640;9.566;2023-05-10T19:44:55;9.80;;;8.65;;
36839;SDS011;24406;51.640;9.566;2023-05-10T19:49:57;9.63;;;8.15;;
36839;SDS011;24406;51.640;9.566;2023-05-10T19:54:58;8.93;;;7.65;;
36839;SDS011;24406;51.640;9.566;2023-05-10T20:00:01;9.43;;;8.23;;
36839;SDS011;24406;51.640;9.566;2023-05-10T20:05:11;11.70;;;9.13;;
36839;SDS011;24406;51.640;9.566;2023-05-10T20:10:12;13.60;;;9.27;;
36839;SDS011;24406;51.640;9.566;2023-05-10T20:15:16;9.82;;;8.57;;
36839;SDS011;24406;51.640;9.566;2023-05-10T20:20:18;10.63;;;8.95;;
36839;SDS011;24406;51.640;9.566;2023-05-10T20:25:20;13.45;;;9.10;;
36839;SDS011;24406;51.640;9.566;2023-05-10T20:30:23;11.73;;;8.55;;
36839;SDS011;24406;51.640;9.566;2023-05-10T20:35:24;10.98;;;8.48;;
36839;SDS011;24406;51.640;9.566;2023-05-10T20:40:26;11.65;;;8.43;;
36839;SDS011;24406;51.640;9.566;2023-05-10T20:45:28;11.40;;;9.05;;
36839;SDS011;24406;51.640;9.566;2023-05-10T20:50:30;12.57;;;9.50;;
36839;SDS011;24406;51.640;9.566;2023-05-10T20:55:31;11.68;;;9.07;;
36839;SDS011;24406;51.640;9.566;2023-05-10T21:00:34;11.85;;;8.85;;
36839;SDS011;24406;51.640;9.566;2023-05-10T21:05:36;13.80;;;10.25;;
36839;SDS011;24406;51.640;9.566;2023-05-10T21:10:37;12.40;;;9.10;;
36839;SDS011;24406;51.640;9.566;2023-05-10T21:15:40;12.23;;;9.40;;
36839;SDS011;24406;51.640;9.566;2023-05-10T21:20:41;11.68;;;9.07;;
36839;SDS011;24406;51.640;9.566;2023-05-10T21:25:43;13.27;;;9.68;;
36839;SDS011;24406;51.640;9.566;2023-05-10T21:30:46;12.63;;;9.32;;
36839;SDS011;24406;51.640;9.566;2023-05-10T21:35:47;13.23;;;11.00;;
36839;SDS011;24406;51.640;9.566;2023-05-10T21:40:49;15.05;;;9.90;;
36839;SDS011;24406;51.640;9.566;2023-05-10T21:45:52;11.40;;;9.80;;
36839;SDS011;24406;51.640;9.566;2023-05-10T21:50:53;14.25;;;9.55;;
36839;SDS011;24406;51.640;9.566;2023-05-10T21:55:55;12.38;;;9.00;;
36839;SDS011;24406;51.640;9.566;2023-05-10T22:00:57;13.95;;;9.63;;
36839;SDS011;24406;51.640;9.566;2023-05-10T22:05:59;17.90;;;9.93;;
36839;SDS011;24406;51.640;9.566;2023-05-10T22:11:01;12.35;;;9.68;;
36839;SDS011;24406;51.640;9.566;2023-05-10T22:16:04;15.30;;;10.55;;
36839;SDS011;24406;51.640;9.566;2023-05-10T22:21:07;15.13;;;9.85;;
36839;SDS011;24406;51.640;9.566;2023-05-10T22:26:09;16.65;;;11.07;;
36839;SDS011;24406;51.640;9.566;2023-05-10T22:31:12;11.73;;;10.35;;
36839;SDS011;24406;51.640;9.566;2023-05-10T22:36:14;14.90;;;11.15;;
36839;SDS011;24406;51.640;9.566;2023-05-10T22:41:15;14.00;;;11.30;;
36839;SDS011;24406;51.640;9.566;2023-05-10T22:46:19;13.85;;;10.93;;
36839;SDS011;24406;51.640;9.566;2023-05-10T22:51:21;18.00;;;11.57;;
36839;SDS011;24406;51.640;9.566;2023-05-10T22:56:22;18.52;;;11.38;;
36839;SDS011;24406;51.640;9.566;2023-05-10T23:01:25;18.70;;;12.07;;
36839;SDS011;24406;51.640;9.566;2023-05-10T23:06:27;19.80;;;12.75;;
36839;SDS011;24406;51.640;9.566;2023-05-10T23:11:28;17.50;;;11.80;;
36839;SDS011;24406;51.640;9.566;2023-05-10T23:16:31;15.40;;;11.70;;
36839;SDS011;24406;51.640;9.566;2023-05-10T23:21:33;18.10;;;12.90;;
36839;SDS011;24406;51.640;9.566;2023-05-10T23:26:34;16.65;;;11.93;;
36839;SDS011;24406;51.640;9.566;2023-05-10T23:31:37;16.15;;;11.70;;
36839;SDS011;24406;51.640;9.566;2023-05-10T23:36:44;17.80;;;12.90;;
36839;SDS011;24406;51.640;9.566;2023-05-10T23:41:45;14.25;;;11.18;;
36839;SDS011;24406;51.640;9.566;2023-05-10T23:46:48;22.13;;;13.93;;
36839;SDS011;24406;51.640;9.566;2023-05-10T23:51:50;25.00;;;14.68;;
36839;SDS011;24406;51.640;9.566;2023-05-10T23:56:51;27.13;;;15.55;;
